Time;durP1;ratioP1;P1;durP2;ratioP2;P2;SDS_P1;SDS_P2;PMS_P1;PMS_P2;Temp;Humidity;BMP_temperature;BMP_pressure;BME280_temperature;BME280_humidity;BME280_pressure;Samples;Min_cycle;Max_cycle;Signal;HPM_P1;HPM_P2
2022/12/03 00:01:55;;;;;;;1.97;1.87;;;4.60;99.90;;;;;;4930933;28;20200;-61
2022/12/03 00:04:23;;;;;;;2.40;2.17;;;4.60;99.90;;;;;;4937174;29;20295;-62
2022/12/03 00:06:50;;;;;;;2.20;2.10;;;4.60;99.90;;;;;;4937958;29;20243;-62
2022/12/03 00:09:16;;;;;;;2.50;2.30;;;4.60;99.90;;;;;;4929904;28;20210;-63
2022/12/03 00:11:43;;;;;;;2.10;2.00;;;4.60;99.90;;;;;;4929910;29;20224;-62
2022/12/03 00:14:10;;;;;;;2.47;2.27;;;4.60;99.90;;;;;;4929525;29;20212;-62
2022/12/03 00:16:37;;;;;;;2.40;2.30;;;4.60;99.90;;;;;;4929995;28;20737;-61
2022/12/03 00:19:06;;;;;;;2.33;2.20;;;4.60;99.90;;;;;;4929856;29;20301;-62
2022/12/03 00:21:34;;;;;;;2.00;1.90;;;4.60;99.90;;;;;;4930041;28;20277;-62
2022/12/03 00:24:01;;;;;;;2.20;2.10;;;4.60;99.90;;;;;;4929533;28;20534;-63
2022/12/03 00:26:28;;;;;;;2.33;2.23;;;4.60;99.90;;;;;;4930284;28;20504;-62
2022/12/03 00:28:56;;;;;;;2.77;2.60;;;4.60;99.90;;;;;;4925545;29;20204;-62
2022/12/03 00:31:23;;;;;;;2.73;2.57;;;4.70;99.90;;;;;;4930403;28;20262;-61
2022/12/03 00:33:50;;;;;;;2.77;2.57;;;4.60;99.90;;;;;;4929704;29;20609;-62
2022/12/03 00:36:17;;;;;;;2.30;2.20;;;4.70;99.90;;;;;;4929684;29;20236;-63
2022/12/03 00:38:45;;;;;;;2.47;2.37;;;4.70;99.90;;;;;;4935441;29;20302;-63
2022/12/03 00:41:12;;;;;;;2.37;2.27;;;4.70;99.90;;;;;;4937350;28;20238;-62
2022/12/03 00:43:39;;;;;;;1.90;1.80;;;4.60;99.90;;;;;;4929733;29;20228;-61
2022/12/03 00:46:06;;;;;;;1.97;1.87;;;4.70;99.90;;;;;;4929767;28;20645;-64
2022/12/03 00:48:33;;;;;;;1.93;1.83;;;4.60;99.90;;;;;;4929764;29;20204;-63
2022/12/03 00:51:00;;;;;;;1.97;1.87;;;4.50;99.90;;;;;;4929524;29;20295;-62
2022/12/03 00:53:27;;;;;;;2.00;1.90;;;4.40;99.90;;;;;;4931805;29;20234;-62
2022/12/03 00:55:55;;;;;;;2.10;1.90;;;4.30;99.90;;;;;;4932801;29;20231;-63
2022/12/03 00:58:22;;;;;;;2.03;1.93;;;4.20;99.90;;;;;;4932975;28;20691;-63
2022/12/03 01:00:49;;;;;;;2.00;1.90;;;4.00;99.90;;;;;;4932901;29;20223;-63
2022/12/03 01:03:15;;;;;;;1.83;1.73;;;4.20;99.90;;;;;;4932514;28;20214;-64
2022/12/03 01:05:42;;;;;;;2.03;1.93;;;4.20;99.90;;;;;;4933103;29;20228;-63
2022/12/03 01:08:10;;;;;;;1.90;1.80;;;4.20;99.90;;;;;;4933402;28;20210;-63
2022/12/03 01:10:37;;;;;;;1.80;1.70;;;4.20;99.90;;;;;;4934518;28;20208;-63
2022/12/03 01:13:05;;;;;;;2.13;2.03;;;4.20;99.90;;;;;;4933787;29;20634;-63
2022/12/03 01:15:32;;;;;;;2.27;2.17;;;4.20;99.90;;;;;;4934459;29;20427;-62
2022/12/03 01:17:59;;;;;;;2.13;2.03;;;4.20;99.90;;;;;;4933262;29;20204;-61
2022/12/03 01:20:26;;;;;;;2.63;2.53;;;4.10;99.90;;;;;;4932808;28;20295;-61
2022/12/03 01:22:53;;;;;;;2.33;2.23;;;4.20;99.90;;;;;;4932249;29;20664;-62
2022/12/03 01:25:20;;;;;;;2.40;2.30;;;4.10;99.90;;;;;;4933125;29;20315;-62
2022/12/03 01:27:46;;;;;;;2.97;2.77;;;4.00;99.90;;;;;;4933016;29;20212;-62
2022/12/03 01:30:15;;;;;;;2.53;2.37;;;4.10;99.90;;;;;;4935594;29;20216;-62
2022/12/03 01:32:41;;;;;;;2.77;2.57;;;4.00;99.90;;;;;;4933680;29;20311;-61
2022/12/03 01:35:08;;;;;;;2.57;2.47;;;4.10;99.90;;;;;;4933384;29;20319;-63
2022/12/03 01:37:35;;;;;;;2.03;1.93;;;4.20;99.90;;;;;;4933792;29;20564;-61
2022/12/03 01:40:02;;;;;;;2.47;2.37;;;4.30;99.90;;;;;;4933431;29;20207;-62
2022/12/03 01:42:31;;;;;;;2.17;2.07;;;4.30;99.90;;;;;;4932468;29;20200;-62
2022/12/03 01:45:00;;;;;;;2.10;2.00;;;4.20;99.90;;;;;;4934645;29;20251;-63
2022/12/03 01:47:31;;;;;;;2.57;2.47;;;4.20;99.90;;;;;;4937528;29;20235;-62
2022/12/03 01:50:02;;;;;;;2.23;2.13;;;4.20;99.90;;;;;;4932541;29;20735;-61
2022/12/03 01:52:32;;;;;;;2.20;2.10;;;4.20;99.90;;;;;;4929455;28;20778;-63
2022/12/03 01:55:01;;;;;;;2.43;2.30;;;4.00;99.90;;;;;;4932224;29;20236;-62
2022/12/03 01:57:34;;;;;;;2.50;2.40;;;4.10;99.90;;;;;;4932335;29;20287;-62
2022/12/03 02:00:01;;;;;;;2.50;2.40;;;4.10;99.90;;;;;;4933323;28;20668;-61
2022/12/03 02:02:31;;;;;;;2.17;2.07;;;4.00;99.90;;;;;;4931484;29;20223;-62
2022/12/03 02:04:58;;;;;;;2.40;2.30;;;4.00;99.90;;;;;;4931916;28;20220;-62
2022/12/03 02:07:27;;;;;;;2.63;2.43;;;4.10;99.90;;;;;;4932223;29;20323;-63
2022/12/03 02:09:56;;;;;;;2.50;2.30;;;4.20;99.90;;;;;;4942027;28;20228;-62
2022/12/03 02:12:28;;;;;;;10.13;3.07;;;4.00;99.90;;;;;;4937999;28;20236;-63
2022/12/03 02:14:55;;;;;;;4.93;1.80;;;4.00;99.90;;;;;;4925230;28;20206;-61
2022/12/03 02:17:22;;;;;;;1.80;1.70;;;3.80;99.90;;;;;;4933102;29;20218;-62
2022/12/03 02:19:51;;;;;;;2.00;1.90;;;3.80;99.90;;;;;;4932400;29;20280;-63
2022/12/03 02:22:30;;;;;;;2.20;2.10;;;3.80;99.90;;;;;;4932024;28;20216;-62
2022/12/03 02:25:13;;;;;;;1.90;1.80;;;3.80;99.90;;;;;;4931577;29;20315;-62
2022/12/03 02:27:40;;;;;;;1.97;1.87;;;3.90;99.90;;;;;;4925837;29;20291;-64
2022/12/03 02:30:09;;;;;;;2.00;1.90;;;4.10;99.90;;;;;;4931734;29;20206;-62
2022/12/03 02:32:36;;;;;;;1.80;1.70;;;4.10;99.90;;;;;;4932977;29;20676;-62
2022/12/03 02:35:04;;;;;;;2.00;1.80;;;4.00;99.90;;;;;;4937178;29;20314;-64
2022/12/03 02:37:34;;;;;;;2.23;1.63;;;3.90;99.90;;;;;;4932704;29;20204;-62
2022/12/03 02:40:06;;;;;;;1.63;1.53;;;3.90;99.90;;;;;;4936208;29;20212;-62
2022/12/03 02:42:35;;;;;;;1.97;1.87;;;4.00;99.90;;;;;;4925843;28;20292;-61
2022/12/03 02:45:05;;;;;;;1.63;1.53;;;4.00;99.90;;;;;;4932897;29;20220;-62
2022/12/03 02:47:33;;;;;;;1.70;1.60;;;4.00;99.90;;;;;;4931744;29;20295;-62
2022/12/03 02:50:01;;;;;;;1.50;1.50;;;4.20;99.90;;;;;;4931202;29;20577;-62
2022/12/03 02:52:28;;;;;;;1.87;1.77;;;4.20;99.90;;;;;;4930366;29;20238;-63
2022/12/03 02:54:55;;;;;;;2.30;1.83;;;4.30;99.90;;;;;;4931230;29;20208;-62
2022/12/03 02:57:23;;;;;;;1.97;1.87;;;4.20;99.90;;;;;;4931110;29;20551;-64
2022/12/03 02:59:50;;;;;;;2.20;2.10;;;4.00;99.90;;;;;;4931562;28;20203;-63
2022/12/03 03:02:17;;;;;;;1.40;1.40;;;4.00;99.90;;;;;;4931124;28;20234;-63
2022/12/03 03:04:45;;;;;;;1.53;1.43;;;4.00;99.90;;;;;;4929025;29;20709;-62
2022/12/03 03:07:11;;;;;;;1.37;1.37;;;4.20;99.90;;;;;;4928568;29;20235;-61
2022/12/03 03:09:39;;;;;;;2.10;2.00;;;4.20;99.90;;;;;;4931061;29;20619;-60
2022/12/03 03:12:06;;;;;;;2.00;1.90;;;4.20;99.90;;;;;;4930620;28;20235;-62
2022/12/03 03:14:35;;;;;;;1.70;1.60;;;4.20;99.90;;;;;;4930024;28;20311;-62
2022/12/03 03:17:02;;;;;;;1.80;1.70;;;4.20;99.90;;;;;;4930439;29;20235;-62
2022/12/03 03:19:29;;;;;;;2.03;1.93;;;4.10;99.90;;;;;;4924091;28;20204;-63
2022/12/03 03:21:56;;;;;;;2.50;2.40;;;4.10;99.90;;;;;;4930666;29;20291;-61
2022/12/03 03:24:23;;;;;;;2.73;2.53;;;4.10;99.90;;;;;;4930276;28;20669;-63
2022/12/03 03:26:50;;;;;;;2.60;2.50;;;4.10;99.90;;;;;;4930710;29;20230;-62
2022/12/03 03:29:18;;;;;;;2.60;2.50;;;4.10;99.90;;;;;;4930718;28;20204;-62
2022/12/03 03:31:47;;;;;;;2.70;2.60;;;4.10;99.90;;;;;;4931025;29;20210;-62
2022/12/03 03:34:15;;;;;;;2.40;2.30;;;4.10;99.90;;;;;;4930194;28;20238;-63
2022/12/03 03:36:42;;;;;;;2.20;2.10;;;4.20;99.90;;;;;;4930694;29;20297;-64
2022/12/03 03:39:09;;;;;;;2.83;2.63;;;4.30;99.90;;;;;;4930414;28;20239;-64
2022/12/03 03:41:36;;;;;;;2.33;2.23;;;4.10;99.90;;;;;;4933047;29;20247;-63
2022/12/03 03:44:05;;;;;;;2.13;2.03;;;4.00;99.90;;;;;;4931589;29;20196;-64
2022/12/03 03:46:33;;;;;;;2.13;2.03;;;4.10;99.90;;;;;;4930527;29;20310;-64
2022/12/03 03:49:02;;;;;;;2.60;2.40;;;4.20;99.90;;;;;;4930917;29;20583;-62
2022/12/03 03:51:29;;;;;;;2.23;2.13;;;4.30;99.90;;;;;;4923847;29;20235;-62
2022/12/03 03:53:57;;;;;;;2.40;2.30;;;4.40;99.90;;;;;;4929843;29;20255;-62
2022/12/03 03:56:24;;;;;;;2.60;2.43;;;4.30;99.90;;;;;;4930878;28;20311;-62
2022/12/03 03:58:51;;;;;;;3.43;3.23;;;4.20;99.90;;;;;;4930703;29;20204;-62
2022/12/03 04:01:18;;;;;;;3.30;3.10;;;4.30;99.90;;;;;;4930252;29;20231;-63
2022/12/03 04:03:45;;;;;;;4.33;4.03;;;4.30;99.90;;;;;;4930048;29;20572;-61
2022/12/03 04:06:13;;;;;;;3.43;3.23;;;4.40;99.90;;;;;;4930243;29;20255;-61
2022/12/03 04:08:40;;;;;;;3.47;3.27;;;4.50;99.90;;;;;;4931038;29;20210;-63
2022/12/03 04:13:51;;;;;;;3.97;3.77;;;4.50;99.90;;;;;;4931278;29;20347;-63
2022/12/03 04:16:18;;;;;;;3.30;3.10;;;4.50;99.90;;;;;;4951171;29;20255;-62
2022/12/03 04:18:45;;;;;;;3.67;3.47;;;4.50;99.90;;;;;;4937251;29;20208;-61
2022/12/03 04:24:10;;;;;;;3.10;2.90;;;4.50;99.90;;;;;;4952392;28;20486;-61
2022/12/03 04:29:22;;;;;;;4.30;4.00;;;4.50;99.90;;;;;;4941841;29;20218;-61
2022/12/03 04:37:19;;;;;;;4.50;4.10;;;4.60;99.90;;;;;;4932111;29;20277;-63
2022/12/03 04:39:45;;;;;;;4.40;4.10;;;4.60;99.90;;;;;;4933152;29;20226;-61
2022/12/03 04:42:12;;;;;;;5.00;4.17;;;4.60;99.90;;;;;;4933079;28;20283;-62
2022/12/03 04:44:39;;;;;;;4.77;4.40;;;4.60;99.90;;;;;;4932485;29;20644;-64
2022/12/03 04:47:09;;;;;;;4.40;4.00;;;4.50;99.90;;;;;;4933226;28;20204;-62
2022/12/03 04:49:38;;;;;;;4.37;4.07;;;4.50;99.90;;;;;;4933228;29;20204;-63
2022/12/03 04:52:05;;;;;;;3.63;3.43;;;4.50;99.90;;;;;;4932893;28;20208;-61
2022/12/03 04:54:33;;;;;;;3.60;3.40;;;4.50;99.90;;;;;;4932874;29;20228;-63
2022/12/03 04:57:00;;;;;;;3.50;3.27;;;4.50;99.90;;;;;;4932922;29;20234;-61
2022/12/03 04:59:27;;;;;;;3.30;3.10;;;4.40;99.90;;;;;;4933090;28;20212;-61
2022/12/03 05:01:54;;;;;;;3.20;3.00;;;4.40;99.90;;;;;;4933007;29;20204;-61
2022/12/03 05:04:21;;;;;;;3.60;3.40;;;4.30;99.90;;;;;;4931567;29;20215;-63
2022/12/03 05:06:47;;;;;;;3.70;3.40;;;4.40;99.90;;;;;;4933626;29;20227;-61
2022/12/03 05:09:15;;;;;;;10.43;3.60;;;4.40;99.90;;;;;;4933133;29;20238;-62
2022/12/03 05:11:43;;;;;;;3.93;3.40;;;4.30;99.90;;;;;;4933410;29;20212;-61
2022/12/03 05:14:10;;;;;;;3.40;3.17;;;4.20;99.90;;;;;;4932490;29;20233;-63
2022/12/03 05:16:38;;;;;;;3.20;2.90;;;4.10;99.90;;;;;;4932929;29;20232;-62
2022/12/03 05:19:06;;;;;;;3.17;2.87;;;4.20;99.90;;;;;;4932731;29;20571;-63
2022/12/03 05:21:32;;;;;;;3.10;2.90;;;4.10;99.90;;;;;;4932944;29;20300;-62
2022/12/03 05:23:59;;;;;;;3.23;2.90;;;4.10;99.90;;;;;;4932405;29;20283;-63
2022/12/03 05:26:26;;;;;;;4.47;3.20;;;4.10;99.90;;;;;;4935740;29;20231;-61
2022/12/03 05:28:54;;;;;;;3.40;3.10;;;4.10;99.90;;;;;;4938917;29;20268;-63
2022/12/03 05:31:20;;;;;;;5.30;3.33;;;4.10;99.90;;;;;;4935526;29;20212;-62
2022/12/03 05:33:47;;;;;;;3.20;3.00;;;3.90;99.90;;;;;;4932234;28;20228;-61
2022/12/03 05:36:14;;;;;;;3.10;2.90;;;3.90;99.90;;;;;;4930916;29;20324;-62
2022/12/03 05:38:41;;;;;;;5.00;3.33;;;4.00;99.90;;;;;;4930990;29;20212;-61
2022/12/03 05:43:48;;;;;;;3.17;2.97;;;3.90;99.90;;;;;;4942475;28;20720;-62
2022/12/03 05:46:17;;;;;;;12.57;5.10;;;3.90;99.90;;;;;;4932973;28;20232;-62
2022/12/03 05:48:44;;;;;;;4.50;4.10;;;3.90;99.90;;;;;;4932341;29;20208;-62
2022/12/03 05:51:10;;;;;;;3.93;3.63;;;3.80;99.90;;;;;;4938246;28;20302;-63
2022/12/03 05:53:37;;;;;;;6.53;4.30;;;3.80;99.90;;;;;;4930534;29;20273;-62
2022/12/03 05:56:05;;;;;;;9.23;4.40;;;3.80;99.90;;;;;;4931426;28;20235;-62
2022/12/03 05:58:31;;;;;;;4.40;4.10;;;3.80;99.90;;;;;;4935478;29;20210;-63
2022/12/03 06:00:58;;;;;;;5.20;4.50;;;3.90;99.90;;;;;;4931583;29;20212;-62
2022/12/03 06:03:26;;;;;;;3.57;3.27;;;3.90;99.90;;;;;;4931360;28;20204;-61
2022/12/03 06:05:53;;;;;;;3.07;2.87;;;3.90;99.90;;;;;;4932901;29;20252;-62
2022/12/03 06:08:20;;;;;;;3.20;3.00;;;3.90;99.90;;;;;;4931792;29;20212;-62
2022/12/03 06:10:47;;;;;;;7.70;3.40;;;3.90;99.90;;;;;;4931236;29;20204;-63
2022/12/03 06:13:14;;;;;;;4.17;2.90;;;3.90;99.90;;;;;;4930566;28;20216;-64
2022/12/03 06:15:40;;;;;;;3.67;2.83;;;3.70;99.90;;;;;;4930500;29;20232;-63
2022/12/03 06:18:07;;;;;;;6.07;2.73;;;3.70;99.90;;;;;;4932022;29;20208;-62
2022/12/03 06:20:36;;;;;;;3.63;3.33;;;3.60;99.90;;;;;;4936545;28;20624;-62
2022/12/03 06:23:02;;;;;;;2.37;2.27;;;3.50;99.90;;;;;;4942581;28;20204;-62
2022/12/03 06:25:29;;;;;;;1.93;1.83;;;3.40;99.90;;;;;;4923989;29;20219;-62
2022/12/03 06:27:56;;;;;;;3.10;2.90;;;3.50;99.90;;;;;;4930912;29;20210;-62
2022/12/03 06:30:23;;;;;;;2.67;2.47;;;3.50;99.90;;;;;;4931439;28;20212;-63
2022/12/03 06:32:50;;;;;;;2.40;2.30;;;3.50;99.90;;;;;;4931255;29;20212;-62
2022/12/03 06:35:17;;;;;;;2.53;2.40;;;3.50;99.90;;;;;;4932110;28;20232;-61
2022/12/03 06:37:45;;;;;;;2.63;2.43;;;3.50;99.90;;;;;;4932133;29;20660;-63
2022/12/03 06:40:13;;;;;;;2.40;2.30;;;3.50;99.90;;;;;;4929210;29;20210;-61
2022/12/03 06:42:40;;;;;;;2.60;2.40;;;3.50;99.90;;;;;;4936043;29;20805;-62
2022/12/03 06:45:07;;;;;;;2.30;2.10;;;3.50;99.90;;;;;;4930567;28;20307;-64
2022/12/03 06:47:34;;;;;;;3.93;2.20;;;3.50;99.90;;;;;;4930920;29;20204;-64
2022/12/03 06:50:01;;;;;;;1.70;1.60;;;3.50;99.90;;;;;;4929776;28;20216;-62
2022/12/03 06:52:28;;;;;;;2.00;1.90;;;3.50;99.90;;;;;;4924268;29;20236;-61
2022/12/03 06:54:56;;;;;;;1.87;1.77;;;3.50;99.90;;;;;;4930738;29;20306;-65
2022/12/03 06:57:23;;;;;;;2.70;2.43;;;3.60;99.90;;;;;;4931211;29;20310;-62
2022/12/03 06:59:50;;;;;;;2.63;2.47;;;3.50;99.90;;;;;;4931161;29;20258;-63
2022/12/03 07:02:17;;;;;;;3.10;2.83;;;3.40;99.90;;;;;;4930475;29;20204;-63
2022/12/03 07:04:44;;;;;;;4.37;3.80;;;3.40;99.90;;;;;;4930296;29;20196;-62
2022/12/03 07:07:10;;;;;;;4.13;3.77;;;3.40;99.90;;;;;;4931452;28;20259;-62
2022/12/03 07:09:37;;;;;;;4.93;3.87;;;3.60;99.90;;;;;;4931351;29;20208;-61
2022/12/03 07:12:06;;;;;;;4.40;4.10;;;3.70;99.90;;;;;;4932201;29;20204;-62
2022/12/03 07:14:33;;;;;;;3.77;3.47;;;3.80;99.90;;;;;;4931227;29;20259;-62
2022/12/03 07:17:00;;;;;;;4.53;3.83;;;3.90;99.90;;;;;;4931242;28;20232;-62
2022/12/03 07:19:26;;;;;;;3.87;3.57;;;3.90;99.90;;;;;;4931604;29;20210;-62
2022/12/03 07:21:53;;;;;;;3.30;3.10;;;3.80;99.90;;;;;;4931643;29;20238;-62
2022/12/03 07:24:20;;;;;;;3.77;3.47;;;3.80;99.90;;;;;;4930498;28;20278;-62
2022/12/03 07:26:47;;;;;;;4.73;2.80;;;3.80;99.90;;;;;;4931581;29;20318;-62
2022/12/03 07:29:15;;;;;;;3.03;2.83;;;3.80;99.90;;;;;;4932132;28;20691;-63
2022/12/03 07:31:42;;;;;;;2.80;2.60;;;3.70;99.90;;;;;;4932154;28;20672;-63
2022/12/03 07:34:09;;;;;;;2.87;2.67;;;3.40;99.90;;;;;;4931883;29;20242;-62
2022/12/03 07:36:35;;;;;;;2.83;2.60;;;3.20;99.90;;;;;;4932613;29;20731;-64
2022/12/03 07:39:03;;;;;;;2.80;2.60;;;3.30;99.90;;;;;;4932446;29;20584;-62
2022/12/03 07:41:30;;;;;;;2.20;2.10;;;3.30;99.90;;;;;;4924503;29;20299;-63
2022/12/03 07:43:56;;;;;;;2.60;2.50;;;3.50;99.90;;;;;;4931330;29;20637;-62
2022/12/03 07:46:25;;;;;;;2.50;2.40;;;3.60;99.90;;;;;;4931685;29;20236;-62
2022/12/03 07:48:51;;;;;;;2.90;2.80;;;3.60;99.90;;;;;;4931333;29;20208;-64
2022/12/03 07:51:18;;;;;;;3.10;2.90;;;3.70;99.90;;;;;;4931214;29;20212;-63
2022/12/03 07:53:45;;;;;;;3.03;2.83;;;3.50;99.90;;;;;;4931474;29;20210;-62
2022/12/03 07:56:12;;;;;;;3.27;3.07;;;3.50;99.90;;;;;;4932275;29;20258;-63
2022/12/03 07:58:39;;;;;;;3.00;2.80;;;3.60;99.90;;;;;;4931351;29;20334;-63
2022/12/03 08:01:06;;;;;;;3.03;2.83;;;3.50;99.90;;;;;;4931411;29;20210;-64
2022/12/03 08:03:34;;;;;;;7.90;3.80;;;3.60;99.90;;;;;;4934395;29;20204;-64
2022/12/03 08:06:01;;;;;;;3.80;3.50;;;3.70;99.90;;;;;;4934310;29;20712;-62
2022/12/03 08:08:28;;;;;;;2.90;2.70;;;3.50;99.90;;;;;;4933824;29;20206;-62
2022/12/03 08:10:55;;;;;;;3.07;2.87;;;3.50;99.90;;;;;;4934395;29;20203;-63
2022/12/03 08:13:21;;;;;;;2.60;2.47;;;3.40;99.90;;;;;;4934526;28;20207;-62
2022/12/03 08:15:48;;;;;;;3.53;3.20;;;3.50;99.90;;;;;;4934420;29;20232;-61
2022/12/03 08:18:17;;;;;;;3.23;3.03;;;3.60;99.90;;;;;;4934300;29;20587;-64
2022/12/03 08:20:49;;;;;;;3.10;2.90;;;3.60;99.90;;;;;;4934638;29;20204;-62
2022/12/03 08:23:17;;;;;;;3.50;3.17;;;3.70;99.90;;;;;;4934516;29;20298;-64
2022/12/03 08:25:45;;;;;;;3.33;3.13;;;3.80;99.90;;;;;;4937510;29;20232;-63
2022/12/03 08:28:14;;;;;;;3.50;3.30;;;3.80;99.90;;;;;;4951189;28;20271;-63
2022/12/03 08:30:42;;;;;;;4.60;4.03;;;3.90;99.90;;;;;;4938266;28;20208;-64
2022/12/03 08:33:21;;;;;;;3.70;3.40;;;3.90;99.90;;;;;;4934342;29;20206;-62
2022/12/03 08:35:50;;;;;;;3.80;3.60;;;3.80;99.90;;;;;;4934188;29;20224;-62
2022/12/03 08:38:21;;;;;;;3.63;3.43;;;3.80;99.90;;;;;;4935876;28;20215;-63
2022/12/03 08:40:50;;;;;;;4.27;3.47;;;3.80;99.90;;;;;;4936657;29;20219;-62
2022/12/03 08:43:20;;;;;;;4.27;3.57;;;3.80;99.90;;;;;;4936007;29;20684;-63
2022/12/03 08:45:48;;;;;;;4.17;3.77;;;3.70;99.90;;;;;;4936445;29;20224;-62
2022/12/03 08:48:35;;;;;;;4.60;4.20;;;3.80;99.90;;;;;;4935198;29;20585;-63
2022/12/03 08:51:12;;;;;;;4.23;3.93;;;3.80;99.90;;;;;;4934777;28;20204;-63
2022/12/03 08:53:45;;;;;;;4.43;4.03;;;3.70;99.90;;;;;;4928093;29;20235;-63
2022/12/03 08:56:23;;;;;;;6.83;4.33;;;3.70;99.90;;;;;;4934670;29;20312;-62
2022/12/03 08:58:53;;;;;;;8.03;4.70;;;3.80;99.90;;;;;;4939027;28;20251;-63
2022/12/03 09:01:32;;;;;;;4.30;4.00;;;3.90;99.90;;;;;;4934924;29;20216;-62
2022/12/03 09:04:19;;;;;;;4.43;4.03;;;3.90;99.90;;;;;;4933561;28;20657;-62
2022/12/03 09:06:48;;;;;;;4.83;4.43;;;3.90;99.90;;;;;;4931852;29;20290;-61
2022/12/03 09:09:14;;;;;;;5.50;5.00;;;3.90;99.90;;;;;;4936663;28;20240;-63
2022/12/03 09:11:43;;;;;;;8.40;5.07;;;3.90;99.90;;;;;;4934144;29;20212;-62
2022/12/03 09:14:10;;;;;;;4.63;4.33;;;4.00;99.90;;;;;;4933003;28;20254;-62
2022/12/03 09:16:37;;;;;;;4.97;4.47;;;4.00;99.90;;;;;;4933911;29;20236;-63
2022/12/03 09:19:05;;;;;;;4.67;4.27;;;4.00;99.90;;;;;;4933446;29;20204;-62
2022/12/03 09:21:32;;;;;;;4.33;4.03;;;3.90;99.90;;;;;;4933420;28;20291;-62
2022/12/03 09:24:00;;;;;;;4.10;3.80;;;3.90;99.90;;;;;;4933488;29;20236;-63
2022/12/03 09:26:27;;;;;;;4.63;4.23;;;3.90;99.90;;;;;;4933995;29;20234;-62
2022/12/03 09:28:54;;;;;;;4.57;4.27;;;4.00;99.90;;;;;;4935882;28;20208;-63
2022/12/03 09:31:20;;;;;;;4.63;4.23;;;4.10;99.90;;;;;;4948689;29;20247;-62
2022/12/03 09:33:47;;;;;;;4.93;4.60;;;4.20;99.90;;;;;;4945433;29;20208;-64
2022/12/03 09:36:14;;;;;;;4.43;4.10;;;4.20;99.90;;;;;;4947822;29;20252;-60
2022/12/03 09:38:41;;;;;;;4.43;4.13;;;4.20;99.90;;;;;;4950620;29;20231;-59
2022/12/03 09:41:09;;;;;;;4.97;4.60;;;4.30;99.90;;;;;;4948005;28;20215;-60
2022/12/03 09:43:36;;;;;;;4.63;4.33;;;4.40;99.90;;;;;;4947013;29;20196;-62
2022/12/03 09:46:04;;;;;;;4.60;4.30;;;4.40;99.90;;;;;;4945762;29;20243;-65
2022/12/03 09:48:31;;;;;;;4.63;4.27;;;4.40;99.90;;;;;;4944987;28;20251;-61
2022/12/03 09:50:58;;;;;;;4.63;4.33;;;4.50;99.90;;;;;;4933936;29;20212;-62
2022/12/03 09:53:27;;;;;;;4.30;4.00;;;4.50;99.90;;;;;;4934359;29;20200;-63
2022/12/03 09:55:54;;;;;;;4.03;3.83;;;4.40;99.90;;;;;;4927929;29;20292;-63
2022/12/03 09:58:22;;;;;;;5.07;4.57;;;4.60;99.90;;;;;;4931853;29;20304;-62
2022/12/03 10:00:51;;;;;;;4.57;4.27;;;4.50;99.90;;;;;;4931598;28;20205;-62
2022/12/03 10:03:20;;;;;;;4.73;4.33;;;4.20;99.90;;;;;;4931524;28;20204;-64
2022/12/03 10:05:47;;;;;;;12.67;5.27;;;4.00;99.90;;;;;;4932088;29;20222;-63
2022/12/03 10:08:19;;;;;;;6.87;4.17;;;3.90;99.90;;;;;;4932903;29;20208;-62
2022/12/03 10:10:47;;;;;;;4.40;4.10;;;3.80;99.90;;;;;;4931854;28;20242;-63
2022/12/03 10:13:24;;;;;;;4.27;3.87;;;3.80;99.90;;;;;;4931842;29;20204;-63
2022/12/03 10:15:52;;;;;;;7.93;4.10;;;4.00;99.90;;;;;;4931581;28;20460;-63
2022/12/03 10:18:21;;;;;;;4.10;3.80;;;4.00;99.90;;;;;;4931278;29;20215;-63
2022/12/03 10:20:49;;;;;;;4.73;4.43;;;4.10;99.90;;;;;;4932041;29;20300;-64
2022/12/03 10:23:21;;;;;;;4.67;4.37;;;4.10;99.90;;;;;;4931313;29;20286;-62
2022/12/03 10:25:56;;;;;;;6.23;4.30;;;4.20;99.90;;;;;;4932251;29;20224;-63
2022/12/03 10:28:33;;;;;;;6.63;5.33;;;4.10;99.90;;;;;;4933014;29;20605;-62
2022/12/03 10:31:01;;;;;;;6.83;4.60;;;4.00;99.90;;;;;;4932526;29;20704;-63
2022/12/03 10:33:30;;;;;;;4.30;4.00;;;3.90;99.90;;;;;;4939071;29;20231;-64
2022/12/03 10:36:13;;;;;;;6.57;4.60;;;3.90;99.90;;;;;;4950665;29;20262;-64
2022/12/03 10:38:40;;;;;;;4.70;3.90;;;3.80;99.90;;;;;;4929936;29;20204;-63
2022/12/03 10:41:20;;;;;;;4.20;3.90;;;3.70;99.90;;;;;;4932010;28;20231;-62
2022/12/03 10:44:24;;;;;;;3.97;3.77;;;3.70;99.90;;;;;;4963310;28;20208;-62
2022/12/03 10:47:05;;;;;;;4.70;4.40;;;3.80;99.90;;;;;;4928123;29;20220;-62
2022/12/03 10:49:32;;;;;;;4.57;4.27;;;4.00;99.90;;;;;;4924983;29;20562;-61
2022/12/03 10:51:59;;;;;;;3.90;3.70;;;4.10;99.90;;;;;;4932106;29;20228;-63
2022/12/03 10:54:28;;;;;;;3.63;3.43;;;4.20;99.90;;;;;;4931790;28;20291;-62
2022/12/03 10:56:56;;;;;;;4.53;4.23;;;4.30;99.90;;;;;;4931732;29;20730;-63
2022/12/03 10:59:26;;;;;;;3.63;3.43;;;4.40;99.90;;;;;;4932122;28;21654;-63
2022/12/03 11:01:53;;;;;;;3.77;3.47;;;4.40;99.90;;;;;;4931801;29;20667;-64
2022/12/03 11:04:22;;;;;;;3.80;3.60;;;4.20;99.90;;;;;;4932015;29;20214;-62
2022/12/03 11:06:50;;;;;;;3.90;3.70;;;4.30;99.90;;;;;;4931887;29;20224;-61
2022/12/03 11:09:20;;;;;;;3.97;3.70;;;4.40;99.90;;;;;;4932062;28;20299;-63
2022/12/03 11:11:48;;;;;;;4.50;4.20;;;4.50;99.90;;;;;;4931997;29;20208;-63
2022/12/03 11:14:53;;;;;;;3.70;3.50;;;4.50;99.90;;;;;;4931891;29;20212;-63
2022/12/03 11:17:45;;;;;;;3.93;3.73;;;4.30;99.90;;;;;;4941351;28;20204;-63
2022/12/03 11:20:32;;;;;;;4.50;4.20;;;4.20;99.90;;;;;;4927804;28;20303;-62
2022/12/03 11:23:00;;;;;;;4.20;4.00;;;4.30;99.90;;;;;;4930340;28;20204;-62
2022/12/03 11:25:49;;;;;;;4.20;3.90;;;4.30;99.90;;;;;;4930644;29;20231;-63
2022/12/03 11:28:54;;;;;;;4.20;3.97;;;4.40;99.90;;;;;;4930544;29;20254;-64
2022/12/03 11:31:35;;;;;;;4.20;3.90;;;4.30;99.90;;;;;;4930503;29;20220;-62
2022/12/03 11:34:36;;;;;;;3.30;3.10;;;4.20;99.90;;;;;;4929814;29;20683;-63
2022/12/03 11:37:24;;;;;;;3.80;3.60;;;4.20;99.90;;;;;;4929443;28;20228;-63
2022/12/03 11:40:31;;;;;;;3.40;3.20;;;4.20;99.90;;;;;;4930209;29;20222;-63
2022/12/03 11:42:58;;;;;;;3.50;3.30;;;4.00;99.90;;;;;;4925985;29;20216;-63
2022/12/03 11:45:34;;;;;;;3.07;2.93;;;4.00;99.90;;;;;;4930224;29;20718;-63
2022/12/03 11:48:06;;;;;;;3.20;3.00;;;3.90;99.90;;;;;;4930868;29;20290;-64
2022/12/03 11:50:35;;;;;;;3.40;3.20;;;3.80;99.90;;;;;;4934190;29;20212;-62
2022/12/03 11:53:14;;;;;;;3.70;3.50;;;3.70;99.90;;;;;;4937906;29;20204;-62
2022/12/03 11:55:45;;;;;;;3.40;3.20;;;3.80;99.90;;;;;;4933407;29;20318;-64
2022/12/03 11:58:16;;;;;;;3.40;3.20;;;4.00;99.90;;;;;;4932612;29;20239;-63
2022/12/03 12:00:49;;;;;;;2.90;2.70;;;4.10;99.90;;;;;;4931125;29;20214;-62
2022/12/03 12:03:23;;;;;;;3.57;3.37;;;4.20;99.90;;;;;;4930839;28;20216;-62
2022/12/03 12:06:01;;;;;;;3.23;2.90;;;4.30;99.90;;;;;;4931272;29;20619;-63
2022/12/03 12:08:30;;;;;;;3.10;2.90;;;4.20;99.90;;;;;;4923375;28;20680;-63
2022/12/03 12:10:57;;;;;;;3.03;2.93;;;4.50;99.90;;;;;;4931054;29;20303;-62
2022/12/03 12:13:53;;;;;;;3.20;3.00;;;4.70;99.90;;;;;;4931296;28;20226;-63
2022/12/03 12:16:44;;;;;;;2.97;2.80;;;4.90;99.90;;;;;;4931050;29;20232;-63
2022/12/03 12:19:34;;;;;;;2.80;2.70;;;4.90;99.90;;;;;;4930737;29;20216;-64
2022/12/03 12:22:18;;;;;;;3.10;2.90;;;4.90;99.90;;;;;;4927769;29;20883;-62
2022/12/03 12:24:50;;;;;;;2.97;2.77;;;5.00;99.90;;;;;;4927373;29;20210;-66
2022/12/03 12:27:19;;;;;;;3.07;2.87;;;5.10;99.90;;;;;;4931281;28;20212;-62
2022/12/03 12:29:52;;;;;;;3.30;3.10;;;5.10;99.90;;;;;;4931338;29;20204;-63
2022/12/03 12:32:21;;;;;;;3.30;3.10;;;5.20;99.90;;;;;;4931635;29;20262;-63
2022/12/03 12:34:50;;;;;;;3.33;3.13;;;5.30;99.90;;;;;;4929731;28;20209;-63
2022/12/03 12:37:20;;;;;;;3.07;2.90;;;5.30;99.90;;;;;;4929970;28;20200;-63
2022/12/03 12:39:52;;;;;;;2.77;2.67;;;5.40;99.90;;;;;;4945796;29;20212;-62
2022/12/03 12:42:31;;;;;;;3.13;2.97;;;5.40;99.90;;;;;;4936471;28;20205;-61
2022/12/03 12:45:10;;;;;;;2.97;2.87;;;5.50;99.90;;;;;;4918891;28;20208;-65
2022/12/03 12:47:37;;;;;;;3.13;2.97;;;5.50;99.90;;;;;;4927957;28;20206;-61
2022/12/03 12:50:09;;;;;;;3.10;2.90;;;5.50;99.90;;;;;;4931517;28;20754;-64
2022/12/03 12:52:42;;;;;;;3.30;3.10;;;5.50;99.90;;;;;;4929863;29;20214;-62
2022/12/03 12:55:13;;;;;;;3.20;3.00;;;5.50;99.90;;;;;;4930571;29;20311;-62
2022/12/03 12:57:40;;;;;;;3.37;3.20;;;5.50;99.90;;;;;;4930781;28;20212;-61
2022/12/03 13:00:13;;;;;;;2.97;2.87;;;5.40;99.90;;;;;;4934707;28;20268;-63
2022/12/03 13:02:44;;;;;;;3.00;2.80;;;5.40;99.90;;;;;;4932939;29;20760;-63
2022/12/03 13:05:13;;;;;;;3.57;3.37;;;5.20;99.90;;;;;;4934609;28;20315;-63
2022/12/03 13:07:42;;;;;;;3.37;3.20;;;5.20;99.90;;;;;;4931744;29;20296;-62
2022/12/03 13:10:35;;;;;;;3.60;3.40;;;5.20;99.90;;;;;;4935984;29;20208;-62
2022/12/03 13:13:15;;;;;;;3.10;2.97;;;5.20;99.90;;;;;;4930746;28;20219;-62
2022/12/03 13:15:49;;;;;;;3.13;2.93;;;5.10;99.90;;;;;;4926165;29;20310;-62
2022/12/03 13:18:24;;;;;;;3.60;3.40;;;5.00;99.90;;;;;;4933342;29;20219;-64
2022/12/03 13:20:51;;;;;;;3.40;3.20;;;4.90;99.90;;;;;;4928291;29;20226;-64
2022/12/03 13:23:30;;;;;;;3.57;3.37;;;5.10;99.90;;;;;;4933821;28;20732;-62
2022/12/03 13:26:00;;;;;;;3.37;3.17;;;5.10;99.90;;;;;;4932512;29;20223;-62
2022/12/03 13:28:29;;;;;;;3.27;3.10;;;5.20;99.90;;;;;;4933246;28;20200;-62